Time;durP1;ratioP1;P1;durP2;ratioP2;P2;SDS_P1;SDS_P2;PMS_P1;PMS_P2;Temp;Humidity;BMP_temperature;BMP_pressure;BME280_temperature;BME280_humidity;BME280_pressure;Samples;Min_cycle;Max_cycle;Signal;HPM_P1;HPM_P2
2023/01/07 00:00:11;;;;;;;2.42;0.93;;;;;;;10.09;96.07;99999.25;4989524;28;20252;-87
2023/01/07 00:02:37;;;;;;;3.63;1.48;;;;;;;10.14;95.93;99993.88;4989175;28;20700;-88
2023/01/07 00:05:02;;;;;;;2.93;0.87;;;;;;;10.15;95.48;100000.97;4988547;28;20082;-88
2023/01/07 00:07:27;;;;;;;3.00;1.25;;;;;;;10.13;95.62;99991.41;4988784;28;20614;-88
2023/01/07 00:09:53;;;;;;;3.50;1.17;;;;;;;10.08;95.51;99984.00;4989691;28;20049;-88
2023/01/07 00:12:18;;;;;;;2.60;0.97;;;;;;;10.11;95.62;99983.47;4989253;28;20263;-89
2023/01/07 00:14:43;;;;;;;2.47;1.03;;;;;;;10.06;95.66;99975.28;4989677;28;20630;-88
2023/01/07 00:17:08;;;;;;;9.85;1.15;;;;;;;10.08;95.68;99984.00;4988808;28;20268;-88
2023/01/07 00:19:34;;;;;;;2.73;0.97;;;;;;;10.12;95.62;99985.16;4989085;28;20088;-89
2023/01/07 00:21:59;;;;;;;2.13;0.73;;;;;;;10.11;95.64;99982.69;4989142;28;20288;-88
2023/01/07 00:24:24;;;;;;;1.40;0.47;;;;;;;10.15;95.64;99984.63;4971304;28;20260;-89
2023/01/07 00:26:49;;;;;;;2.20;0.97;;;;;;;10.16;95.32;99985.44;4988187;28;20264;-88
2023/01/07 00:29:15;;;;;;;1.70;0.73;;;;;;;10.14;95.21;99988.44;4989092;28;20738;-88
2023/01/07 00:31:41;;;;;;;2.03;0.82;;;;;;;10.13;95.47;99981.31;4988916;28;20734;-89
2023/01/07 00:34:07;;;;;;;2.03;1.00;;;;;;;10.15;95.06;99978.34;4989388;28;20034;-87
2023/01/07 00:36:36;;;;;;;2.15;0.98;;;;;;;10.18;95.31;99979.75;4988469;28;20256;-88
2023/01/07 00:39:05;;;;;;;2.72;0.60;;;;;;;10.15;95.06;99973.72;4988843;28;20029;-88
2023/01/07 00:41:30;;;;;;;2.55;0.88;;;;;;;10.15;94.71;99971.00;4989205;28;20022;-88
2023/01/07 00:43:56;;;;;;;1.92;0.90;;;;;;;10.16;94.68;99969.09;4989563;28;20637;-89
2023/01/07 00:46:21;;;;;;;1.65;0.88;;;;;;;10.13;94.73;99966.88;4987591;28;20042;-88
2023/01/07 00:48:47;;;;;;;1.73;0.60;;;;;;;10.13;94.91;99975.88;4989087;28;20027;-87
2023/01/07 00:51:14;;;;;;;2.50;0.88;;;;;;;10.21;94.39;99979.25;4971953;28;20031;-88
2023/01/07 00:53:39;;;;;;;1.10;0.60;;;;;;;10.18;94.50;99977.00;4988825;28;20048;-88
2023/01/07 00:56:05;;;;;;;2.47;0.77;;;;;;;10.16;94.59;99971.81;4988580;28;20034;-87
2023/01/07 00:58:30;;;;;;;2.00;0.70;;;;;;;10.26;94.28;99977.38;4990359;28;20168;-89
2023/01/07 01:00:57;;;;;;;1.48;0.50;;;;;;;10.24;94.25;99967.81;4992737;28;20034;-87
2023/01/07 01:03:23;;;;;;;1.48;0.68;;;;;;;10.21;94.13;99971.88;4992124;28;20101;-87
2023/01/07 01:05:49;;;;;;;2.10;0.63;;;;;;;10.23;93.85;99963.47;4991637;28;20644;-87
2023/01/07 01:08:14;;;;;;;5.82;1.23;;;;;;;10.26;93.73;99954.75;4992048;28;20026;-87
2023/01/07 01:10:40;;;;;;;3.47;1.15;;;;;;;10.27;93.65;99953.69;4974564;28;20558;-87
2023/01/07 01:13:05;;;;;;;3.35;0.55;;;;;;;10.17;93.37;99954.38;4991940;28;20030;-88
2023/01/07 01:15:31;;;;;;;1.88;0.70;;;;;;;10.11;93.76;99958.97;4991585;28;20027;-87
2023/01/07 01:17:56;;;;;;;1.13;0.55;;;;;;;10.10;94.19;99953.78;4992138;28;20042;-86
2023/01/07 01:20:21;;;;;;;1.73;0.43;;;;;;;10.15;94.04;99956.53;4991944;28;20038;-90
2023/01/07 01:22:47;;;;;;;2.80;1.25;;;;;;;10.13;93.82;99953.25;4992384;28;20431;-86
2023/01/07 01:25:13;;;;;;;2.67;0.63;;;;;;;10.15;93.38;99946.47;4991684;28;20041;-88
2023/01/07 01:27:38;;;;;;;3.25;0.60;;;;;;;10.21;93.50;99946.53;4974112;28;20042;-88
2023/01/07 01:30:05;;;;;;;2.95;0.85;;;;;;;10.18;93.54;99949.75;4992170;28;20078;-88
2023/01/07 01:32:30;;;;;;;0.65;0.47;;;;;;;10.20;93.54;99939.44;4991643;28;20447;-88
2023/01/07 01:34:56;;;;;;;3.38;0.60;;;;;;;10.21;93.05;99943.81;4991348;28;20121;-88
2023/01/07 01:37:21;;;;;;;4.97;0.65;;;;;;;10.19;93.00;99941.31;4990306;28;20030;-88
2023/01/07 01:39:46;;;;;;;2.40;0.85;;;;;;;10.24;93.12;99938.66;4991505;28;20049;-88
2023/01/07 01:42:14;;;;;;;1.97;0.83;;;;;;;10.25;92.84;99939.50;4991888;28;20026;-87
2023/01/07 01:44:44;;;;;;;1.40;0.70;;;;;;;10.19;93.13;99946.78;4990814;28;20272;-87
2023/01/07 01:47:22;;;;;;;1.13;0.45;;;;;;;10.22;92.76;99945.44;4989627;28;20157;-87
2023/01/07 01:49:58;;;;;;;4.88;0.50;;;;;;;10.22;92.69;99946.28;4992138;28;20041;-87
2023/01/07 01:52:29;;;;;;;0.95;0.50;;;;;;;10.24;92.51;99944.13;4991056;28;20022;-89
2023/01/07 01:54:59;;;;;;;2.03;0.70;;;;;;;10.23;92.33;99947.09;4991046;28;20189;-89
2023/01/07 01:57:27;;;;;;;2.88;0.55;;;;;;;10.29;92.43;99943.34;4991055;28;20186;-88
2023/01/07 01:59:55;;;;;;;1.67;0.88;;;;;;;10.25;92.71;99939.50;4991779;28;20034;-89
2023/01/07 02:02:27;;;;;;;2.20;0.65;;;;;;;10.27;92.40;99937.34;4990544;28;20387;-86
2023/01/07 02:04:55;;;;;;;1.15;0.50;;;;;;;10.23;92.57;99934.28;4991124;28;20108;-86
2023/01/07 02:07:20;;;;;;;0.45;0.38;;;;;;;10.22;92.23;99937.28;4990545;28;20146;-87
2023/01/07 02:09:57;;;;;;;2.15;0.88;;;;;;;10.22;92.07;99938.09;4990769;28;20125;-88
2023/01/07 02:12:58;;;;;;;9.50;1.45;;;;;;;10.11;92.49;99929.00;4991348;28;20057;-88
2023/01/07 02:15:36;;;;;;;1.23;0.40;;;;;;;10.07;92.77;99927.06;4990946;28;20088;-86
2023/01/07 02:18:14;;;;;;;2.10;0.80;;;;;;;10.06;92.44;99923.50;4990862;28;20026;-88
2023/01/07 02:21:16;;;;;;;1.40;0.50;;;;;;;10.06;92.68;99920.78;4990499;28;20034;-87
2023/01/07 02:24:23;;;;;;;2.03;0.82;;;;;;;10.13;92.34;99921.38;4990709;28;20054;-87
2023/01/07 02:26:59;;;;;;;1.63;0.40;;;;;;;10.14;92.11;99917.59;4990022;28;20176;-87
2023/01/07 02:29:53;;;;;;;0.60;0.40;;;;;;;10.14;92.08;99928.50;4990092;28;20122;-87
2023/01/07 02:32:49;;;;;;;1.98;0.50;;;;;;;10.15;91.92;99924.69;4990800;28;20122;-88
2023/01/07 02:35:36;;;;;;;0.55;0.30;;;;;;;10.19;91.83;99921.47;4990904;28;20038;-87
2023/01/07 02:38:46;;;;;;;0.98;0.55;;;;;;;10.09;91.99;99920.25;4981418;28;20484;-86
2023/01/07 02:41:17;;;;;;;0.52;0.28;;;;;;;10.11;92.08;99920.81;4974828;28;20130;-87
2023/01/07 02:44:00;;;;;;;1.65;0.40;;;;;;;10.13;91.88;99921.38;4991119;28;20069;-88
2023/01/07 02:46:49;;;;;;;1.05;0.43;;;;;;;10.18;91.77;99922.53;4989720;28;20038;-87
2023/01/07 02:49:16;;;;;;;5.13;0.60;;;;;;;10.12;91.83;99919.75;4990348;28;20038;-87
2023/01/07 02:51:42;;;;;;;5.57;0.63;;;;;;;10.14;91.79;99914.88;4990421;28;20030;-87
2023/01/07 02:54:16;;;;;;;1.20;0.55;;;;;;;10.17;91.39;99910.78;4990907;28;20547;-88
2023/01/07 02:57:05;;;;;;;0.68;0.35;;;;;;;10.16;91.44;99909.16;4988521;28;20049;-86
2023/01/07 02:59:48;;;;;;;1.98;1.27;;;;;;;10.19;91.26;99910.56;4990582;28;20034;-87
2023/01/07 03:02:21;;;;;;;1.35;0.40;;;;;;;10.16;91.24;99901.81;4990431;28;20317;-89
2023/01/07 03:04:52;;;;;;;1.10;0.40;;;;;;;10.19;91.29;99902.38;4990798;28;20038;-89
2023/01/07 03:07:51;;;;;;;3.80;0.60;;;;;;;10.14;91.12;99893.09;4989531;28;20050;-89
2023/01/07 03:10:34;;;;;;;1.85;0.43;;;;;;;10.21;90.92;99897.50;4990041;28;20422;-88
2023/01/07 03:13:06;;;;;;;1.65;0.40;;;;;;;10.15;91.04;99893.88;4990400;28;20118;-87
2023/01/07 03:15:47;;;;;;;2.90;1.02;;;;;;;10.12;91.15;99887.06;4989612;28;20026;-87
2023/01/07 03:18:18;;;;;;;2.53;0.60;;;;;;;10.07;91.46;99897.09;4990606;28;20072;-87
2023/01/07 03:20:48;;;;;;;3.03;0.40;;;;;;;10.11;91.12;99885.41;4989864;28;20034;-87
2023/01/07 03:23:18;;;;;;;1.05;0.40;;;;;;;10.06;91.51;99881.81;4990284;28;20044;-88
2023/01/07 03:25:46;;;;;;;1.05;0.60;;;;;;;10.05;91.83;99872.81;4988425;28;20045;-88
2023/01/07 03:28:16;;;;;;;1.13;0.30;;;;;;;10.02;91.57;99876.06;4990157;28;20045;-88
2023/01/07 03:30:42;;;;;;;1.33;0.38;;;;;;;9.99;91.89;99871.97;4990298;28;20065;-86
2023/01/07 03:33:16;;;;;;;1.00;0.50;;;;;;;10.01;91.64;99874.41;4990264;28;20484;-89
2023/01/07 03:35:43;;;;;;;;;;;;;;;9.96;91.54;99874.38;4990502;28;20383;-88
2023/01/07 03:38:09;;;;;;;1.45;0.60;;;;;;;10.02;91.50;99882.34;4990378;28;19913;-87
2023/01/07 03:40:35;;;;;;;2.03;0.35;;;;;;;9.99;91.59;99871.13;4989818;28;20046;-86
2023/01/07 03:43:01;;;;;;;2.85;0.95;;;;;;;9.98;91.60;99872.22;4990336;28;20061;-87
2023/01/07 03:45:27;;;;;;;2.87;0.70;;;;;;;9.99;91.68;99866.50;4989618;28;20412;-87
2023/01/07 03:47:54;;;;;;;2.63;0.63;;;;;;;10.00;91.39;99873.63;4990250;28;20677;-86
2023/01/07 03:50:20;;;;;;;1.27;0.45;;;;;;;10.03;91.26;99866.81;4989955;28;20038;-88
2023/01/07 03:52:49;;;;;;;2.28;0.73;;;;;;;10.06;91.04;99854.59;4989798;28;20042;-87
2023/01/07 03:55:15;;;;;;;1.27;0.43;;;;;;;10.04;91.12;99863.03;4972011;28;20053;-87
2023/01/07 03:57:40;;;;;;;1.05;0.40;;;;;;;9.99;91.31;99844.72;4988618;28;20112;-87
2023/01/07 04:00:08;;;;;;;0.80;0.52;;;;;;;9.96;91.25;99849.88;4989779;28;20045;-87
2023/01/07 04:02:33;;;;;;;3.92;0.65;;;;;;;9.98;91.30;99847.72;4989436;28;20030;-89
2023/01/07 04:04:58;;;;;;;3.22;1.20;;;;;;;9.93;91.03;99848.47;4990039;28;20121;-88
2023/01/07 04:07:23;;;;;;;2.47;1.00;;;;;;;9.91;91.29;99837.84;4988157;28;20368;-88
2023/01/07 04:09:49;;;;;;;6.03;0.95;;;;;;;9.92;91.14;99836.78;4972476;28;20327;-87
2023/01/07 04:12:16;;;;;;;1.50;0.45;;;;;;;9.89;90.85;99839.19;4989498;28;20033;-87
2023/01/07 04:14:41;;;;;;;1.40;0.68;;;;;;;9.89;91.19;99840.00;4989631;28;20033;-87
2023/01/07 04:17:06;;;;;;;1.30;0.55;;;;;;;9.87;90.82;99823.09;4989143;28;20042;-88
2023/01/07 04:19:32;;;;;;;1.58;0.50;;;;;;;9.87;91.22;99823.09;4990010;28;20120;-90
2023/01/07 04:21:57;;;;;;;2.10;0.95;;;;;;;9.88;91.14;99821.22;4989590;28;20030;-89
2023/01/07 04:24:23;;;;;;;1.15;0.60;;;;;;;9.84;91.13;99817.38;4989690;28;20100;-88
2023/01/07 04:26:48;;;;;;;1.20;0.65;;;;;;;9.79;90.64;99829.00;4989295;28;20045;-87
2023/01/07 04:29:13;;;;;;;1.80;1.00;;;;;;;9.74;90.96;99818.91;4989686;28;20027;-88
2023/01/07 04:31:39;;;;;;;2.13;0.80;;;;;;;9.81;91.01;99815.97;4989483;28;20565;-88
2023/01/07 04:34:04;;;;;;;1.40;0.63;;;;;;;9.79;90.56;99823.56;4992084;28;20046;-88
2023/01/07 04:36:30;;;;;;;1.55;0.50;;;;;;;9.68;91.33;99815.31;4975468;28;20268;-88
2023/01/07 04:38:55;;;;;;;1.90;0.57;;;;;;;9.73;91.34;99821.88;4993345;28;20535;-87
2023/01/07 04:41:20;;;;;;;1.30;0.70;;;;;;;9.75;91.06;99817.00;4993342;28;20061;-89
2023/01/07 04:43:46;;;;;;;1.75;0.80;;;;;;;9.69;91.08;99813.41;4993231;28;20042;-87
2023/01/07 04:46:11;;;;;;;2.58;1.10;;;;;;;9.77;90.82;99810.22;4975021;28;20062;-87
2023/01/07 04:48:36;;;;;;;1.00;0.57;;;;;;;9.72;90.72;99818.34;4993344;28;20030;-87
2023/01/07 04:51:02;;;;;;;3.42;1.08;;;;;;;9.66;91.06;99812.00;4993132;28;20244;-88
2023/01/07 04:53:27;;;;;;;2.00;0.80;;;;;;;9.67;90.75;99813.66;4993059;28;20034;-87
2023/01/07 04:55:52;;;;;;;2.20;0.73;;;;;;;9.71;90.39;99796.81;4992590;28;20042;-87
2023/01/07 04:58:18;;;;;;;3.05;0.90;;;;;;;9.71;90.28;99803.09;4992924;28;20499;-87
2023/01/07 05:00:45;;;;;;;1.98;0.65;;;;;;;9.68;90.46;99790.00;4993204;28;20349;-88
2023/01/07 05:03:11;;;;;;;0.70;0.60;;;;;;;9.72;90.55;99793.03;4992626;28;20034;-88
2023/01/07 05:05:36;;;;;;;2.78;0.93;;;;;;;9.71;90.20;99781.31;4992254;28;20121;-87
2023/01/07 05:08:02;;;;;;;2.20;0.73;;;;;;;9.67;90.10;99791.91;4982395;28;20030;-89
2023/01/07 05:10:27;;;;;;;2.15;0.88;;;;;;;9.63;90.16;99781.78;4992478;28;20045;-87
2023/01/07 05:12:52;;;;;;;1.85;1.25;;;;;;;9.68;89.78;99785.34;4992559;28;20031;-87
2023/01/07 05:15:18;;;;;;;1.37;0.67;;;;;;;9.68;90.12;99779.91;4992864;28;20037;-88
2023/01/07 05:17:43;;;;;;;2.60;1.07;;;;;;;9.65;89.67;99775.00;4992113;28;20346;-90
2023/01/07 05:20:09;;;;;;;4.15;1.85;;;;;;;9.63;89.94;99765.44;4992079;28;20302;-87
2023/01/07 05:22:34;;;;;;;2.22;1.00;;;;;;;9.67;89.37;99767.41;4992681;28;20030;-87
2023/01/07 05:25:00;;;;;;;3.27;1.00;;;;;;;9.67;89.38;99775.56;4992726;28;20056;-88
2023/01/07 05:27:25;;;;;;;2.97;1.20;;;;;;;9.60;89.31;99769.50;4991760;28;20272;-89
2023/01/07 05:29:50;;;;;;;1.90;0.67;;;;;;;9.57;89.64;99759.13;4992562;28;20637;-89
2023/01/07 05:32:15;;;;;;;4.43;1.00;;;;;;;9.56;89.75;99760.19;4992149;28;20261;-86
2023/01/07 05:34:41;;;;;;;6.38;0.60;;;;;;;9.57;89.05;99762.69;4974920;28;20271;-86
2023/01/07 05:37:07;;;;;;;2.47;1.00;;;;;;;9.52;89.54;99751.72;4991450;28;20042;-89
2023/01/07 05:39:32;;;;;;;2.92;1.20;;;;;;;9.51;89.26;99752.81;4991620;28;20056;-87
2023/01/07 05:41:58;;;;;;;2.65;0.80;;;;;;;9.56;89.45;99746.59;4992512;28;20467;-88
2023/01/07 05:44:23;;;;;;;1.55;0.90;;;;;;;9.63;89.12;99739.03;4991688;28;20464;-88
2023/01/07 05:46:48;;;;;;;2.45;0.95;;;;;;;9.57;89.24;99748.25;4973907;28;20037;-88
2023/01/07 05:49:14;;;;;;;3.88;1.30;;;;;;;9.59;89.07;99751.53;4991771;28;20113;-87
2023/01/07 05:51:39;;;;;;;2.10;1.00;;;;;;;9.50;89.38;99750.38;4992105;28;20035;-87
2023/01/07 05:54:04;;;;;;;1.33;0.93;;;;;;;9.53;89.46;99756.09;4992191;28;20053;-88
2023/01/07 05:56:29;;;;;;;2.30;0.85;;;;;;;9.44;88.80;99746.75;4991778;28;20310;-89
2023/01/07 05:58:55;;;;;;;10.25;1.60;;;;;;;9.49;89.40;99748.72;4974553;28;20117;-86
2023/01/07 06:01:20;;;;;;;3.40;1.30;;;;;;;9.54;89.46;99752.28;4991621;28;20383;-87
2023/01/07 06:03:45;;;;;;;3.70;1.83;;;;;;;9.55;88.94;99753.94;4991775;28;20284;-87
2023/01/07 06:06:11;;;;;;;4.45;1.92;;;;;;;9.54;89.03;99749.56;4991314;28;20043;-88
2023/01/07 06:08:37;;;;;;;9.13;1.30;;;;;;;9.48;89.09;99757.97;4991535;28;20038;-88
2023/01/07 06:11:04;;;;;;;2.08;1.05;;;;;;;9.51;89.30;99743.84;4991142;28;20041;-88
2023/01/07 06:13:30;;;;;;;3.10;1.10;;;;;;;9.54;89.04;99735.16;4991143;28;20034;-87
2023/01/07 06:16:03;;;;;;;1.55;0.88;;;;;;;9.52;88.83;99743.56;4991602;28;20035;-87
2023/01/07 06:18:29;;;;;;;1.93;0.97;;;;;;;9.54;88.80;99740.59;4991086;28;20590;-87
2023/01/07 06:20:54;;;;;;;2.80;1.00;;;;;;;9.55;88.69;99736.78;4991313;28;20260;-87
2023/01/07 06:23:20;;;;;;;2.63;1.00;;;;;;;9.56;88.83;99732.97;4991238;28;20030;-86
2023/01/07 06:25:45;;;;;;;2.90;1.27;;;;;;;9.63;88.84;99735.50;4990404;28;20034;-88
2023/01/07 06:28:10;;;;;;;2.75;1.20;;;;;;;9.55;88.35;99734.06;4990578;28;20037;-87
2023/01/07 06:30:36;;;;;;;1.95;1.10;;;;;;;9.51;88.65;99741.94;4991473;28;20045;-87
2023/01/07 06:33:01;;;;;;;2.10;1.05;;;;;;;9.55;88.78;99736.78;4973847;28;20519;-86
2023/01/07 06:35:27;;;;;;;4.55;0.93;;;;;;;9.57;88.47;99721.84;4990661;28;20124;-87
2023/01/07 06:37:52;;;;;;;4.00;1.13;;;;;;;9.55;88.27;99726.75;4990856;28;20958;-87
2023/01/07 06:40:17;;;;;;;2.60;1.02;;;;;;;9.61;88.45;99729.50;4990294;28;20061;-88
2023/01/07 06:42:43;;;;;;;2.40;1.05;;;;;;;9.63;88.17;99721.88;4990655;28;20488;-87
2023/01/07 06:45:09;;;;;;;2.28;1.00;;;;;;;9.52;88.14;99719.06;4990818;28;20320;-88
2023/01/07 06:47:34;;;;;;;3.15;1.13;;;;;;;9.53;88.75;99723.44;4990575;28;20096;-87
2023/01/07 06:49:59;;;;;;;4.28;1.08;;;;;;;9.58;88.13;99719.94;4973553;28;20042;-87
2023/01/07 06:52:25;;;;;;;2.67;0.85;;;;;;;9.61;88.02;99713.16;4990721;28;20038;-87
2023/01/07 06:54:50;;;;;;;1.55;0.90;;;;;;;9.60;88.49;99706.09;4990643;28;20100;-87
2023/01/07 06:57:15;;;;;;;4.50;1.50;;;;;;;9.57;87.73;99707.41;4989154;28;20048;-88
2023/01/07 06:59:40;;;;;;;3.22;1.00;;;;;;;9.65;87.68;99712.38;4990780;28;20673;-87
2023/01/07 07:02:06;;;;;;;4.10;0.80;;;;;;;9.63;87.77;99705.56;4990724;28;20045;-89
2023/01/07 07:04:31;;;;;;;3.17;1.13;;;;;;;9.61;87.30;99703.09;4990723;28;20339;-88
2023/01/07 07:06:56;;;;;;;2.80;0.93;;;;;;;9.61;87.06;99705.81;4989893;28;20256;-89
2023/01/07 07:09:22;;;;;;;3.80;1.63;;;;;;;9.55;87.75;99706.84;4990386;28;20476;-87
2023/01/07 07:11:47;;;;;;;2.00;0.90;;;;;;;9.58;87.31;99695.44;4973621;28;20026;-87
2023/01/07 07:14:12;;;;;;;1.40;0.47;;;;;;;9.63;86.71;99684.59;4990489;28;20717;-88
2023/01/07 07:16:37;;;;;;;3.80;0.63;;;;;;;9.62;86.44;99684.88;4989107;28;20037;-87
2023/01/07 07:19:03;;;;;;;1.50;0.52;;;;;;;9.67;86.04;99687.63;4990774;28;20034;-88
2023/01/07 07:21:28;;;;;;;1.37;0.70;;;;;;;9.68;85.50;99673.75;4990221;28;20109;-87
2023/01/07 07:23:53;;;;;;;1.37;0.87;;;;;;;9.72;85.07;99684.13;4973179;28;20348;-89
2023/01/07 07:26:18;;;;;;;1.67;0.70;;;;;;;9.78;84.68;99696.69;4989175;28;20268;-88
2023/01/07 07:28:44;;;;;;;3.77;0.50;;;;;;;9.88;84.15;99685.88;4989605;28;20304;-88
2023/01/07 07:31:10;;;;;;;1.50;0.52;;;;;;;9.91;83.64;99689.97;4990040;28;20252;-86
2023/01/07 07:33:36;;;;;;;1.25;0.47;;;;;;;9.89;83.22;99676.63;4990316;28;20069;-86
2023/01/07 07:36:04;;;;;;;1.98;0.50;;;;;;;9.90;83.16;99682.88;4989407;28;20038;-87
2023/01/07 07:38:30;;;;;;;1.42;0.50;;;;;;;9.81;82.65;99686.09;4989653;28;20125;-87
2023/01/07 07:40:55;;;;;;;3.42;1.20;;;;;;;9.91;82.73;99685.34;4989957;28;20177;-87
2023/01/07 07:43:21;;;;;;;1.10;0.50;;;;;;;9.96;82.40;99681.00;4989544;28;20486;-87
2023/01/07 07:45:46;;;;;;;1.55;0.60;;;;;;;9.91;82.62;99669.00;4989364;28;20038;-88
2023/01/07 07:48:13;;;;;;;2.05;0.77;;;;;;;9.83;83.17;99674.09;4989707;28;20045;-88
2023/01/07 07:50:39;;;;;;;1.42;0.40;;;;;;;9.90;82.78;99678.28;4989871;28;20042;-88
2023/01/07 07:53:08;;;;;;;4.43;0.70;;;;;;;9.91;82.94;99679.91;4990379;28;20034;-88
2023/01/07 07:55:35;;;;;;;0.63;0.47;;;;;;;9.92;82.77;99675.28;4988669;28;20042;-89
2023/01/07 07:58:01;;;;;;;1.88;0.60;;;;;;;9.92;83.07;99676.09;4989548;28;20034;-87
2023/01/07 08:00:26;;;;;;;1.45;0.43;;;;;;;9.90;83.17;99664.66;4988581;28;20487;-88
2023/01/07 08:02:51;;;;;;;1.17;0.70;;;;;;;9.83;83.41;99655.88;4989640;28;20038;-87
2023/01/07 08:05:17;;;;;;;2.15;0.70;;;;;;;9.84;83.33;99657.53;4989253;28;20057;-89
2023/01/07 08:07:42;;;;;;;2.15;1.00;;;;;;;9.90;83.31;99655.66;4990410;28;20535;-87
2023/01/07 08:10:08;;;;;;;4.65;1.40;;;;;;;9.93;83.42;99664.13;4992692;28;20077;-89
2023/01/07 08:12:37;;;;;;;6.80;0.73;;;;;;;9.88;83.32;99647.75;4975890;28;20043;-88
2023/01/07 08:15:04;;;;;;;2.40;0.63;;;;;;;9.88;83.63;99658.66;4993690;28;20461;-87
2023/01/07 08:17:29;;;;;;;3.53;0.70;;;;;;;9.75;83.24;99650.91;4993120;28;20038;-86
2023/01/07 08:19:54;;;;;;;1.30;0.73;;;;;;;9.78;83.37;99658.56;4993855;28;20162;-88
2023/01/07 08:22:20;;;;;;;1.00;0.40;;;;;;;9.81;83.24;99652.59;4993106;28;20480;-89
2023/01/07 08:24:45;;;;;;;1.55;0.60;;;;;;;9.78;82.43;99650.41;4992629;28;20039;-87
2023/01/07 08:27:10;;;;;;;1.40;0.43;;;;;;;9.76;82.42;99647.94;4991777;28;20191;-90
2023/01/07 08:29:36;;;;;;;0.93;0.50;;;;;;;9.70;82.24;99646.28;4993138;28;20276;-87
2023/01/07 08:32:01;;;;;;;2.60;0.90;;;;;;;9.68;81.88;99659.34;4992921;28;20100;-85
2023/01/07 08:34:27;;;;;;;3.28;0.50;;;;;;;9.71;81.94;99652.53;4991821;28;20495;-88
2023/01/07 08:36:53;;;;;;;2.50;0.65;;;;;;;9.71;81.53;99644.34;4992949;28;20484;-88
2023/01/07 08:39:18;;;;;;;2.05;0.32;;;;;;;9.84;81.64;99652.09;4992588;28;20070;-88
2023/01/07 08:41:43;;;;;;;2.05;0.82;;;;;;;9.93;81.39;99646.94;4993351;28;20088;-89
2023/01/07 08:44:09;;;;;;;0.82;0.45;;;;;;;9.92;80.58;99643.44;4976115;28;20641;-87
2023/01/07 08:46:34;;;;;;;1.30;0.73;;;;;;;10.01;80.79;99641.00;4992412;28;20044;-88
2023/01/07 08:48:59;;;;;;;1.33;0.40;;;;;;;10.09;80.43;99641.59;4993106;28;20287;-88
2023/01/07 08:51:25;;;;;;;1.73;0.75;;;;;;;10.14;80.22;99642.44;4992773;28;20483;-83
2023/01/07 08:53:50;;;;;;;3.80;0.40;;;;;;;10.01;79.58;99641.00;4975322;28;20045;-84
2023/01/07 08:56:15;;;;;;;1.80;0.47;;;;;;;10.05;80.27;99641.28;4991091;28;20034;-89
2023/01/07 08:58:40;;;;;;;2.20;0.60;;;;;;;10.12;80.12;99635.63;4992050;28;20283;-88
2023/01/07 09:01:06;;;;;;;5.63;1.17;;;;;;;10.03;79.81;99640.72;4992284;28;20034;-88
2023/01/07 09:03:32;;;;;;;2.90;0.57;;;;;;;10.13;79.97;99631.78;4992789;28;20081;-89
2023/01/07 09:05:58;;;;;;;1.10;0.45;;;;;;;10.13;79.79;99626.34;4991879;28;20066;-88
2023/01/07 09:08:23;;;;;;;4.35;0.55;;;;;;;10.18;79.89;99633.72;4993877;28;20093;-88
2023/01/07 09:10:49;;;;;;;1.35;0.63;;;;;;;10.24;79.43;99625.31;4993256;28;20558;-87
2023/01/07 09:13:14;;;;;;;1.92;0.73;;;;;;;10.30;79.49;99630.78;4975360;28;20045;-88
2023/01/07 09:15:39;;;;;;;2.45;1.08;;;;;;;10.31;79.60;99627.00;4991362;28;20106;-87
2023/01/07 09:18:05;;;;;;;1.05;0.50;;;;;;;10.21;79.18;99623.13;4992222;28;20464;-88
2023/01/07 09:20:31;;;;;;;1.48;0.73;;;;;;;10.24;79.44;99628.03;4992550;28;20072;-87
2023/01/07 09:22:56;;;;;;;1.92;0.80;;;;;;;10.29;79.38;99613.63;4992853;28;20113;-87
2023/01/07 09:25:21;;;;;;;2.10;0.77;;;;;;;10.27;79.21;99611.16;4992471;28;20228;-88
2023/01/07 09:27:48;;;;;;;3.03;1.02;;;;;;;10.21;79.39;99612.22;4991554;28;20148;-88
2023/01/07 09:30:13;;;;;;;2.22;0.65;;;;;;;10.18;79.99;99609.22;4992967;28;20026;-89
2023/01/07 09:32:39;;;;;;;1.17;0.60;;;;;;;10.17;79.87;99611.09;4992394;28;20076;-87
2023/01/07 09:35:05;;;;;;;1.77;0.77;;;;;;;10.13;79.50;99604.56;4992457;28;20034;-87
2023/01/07 09:37:30;;;;;;;2.33;0.70;;;;;;;10.13;80.33;99604.56;4992022;28;20034;-88
2023/01/07 09:39:56;;;;;;;4.15;0.80;;;;;;;10.14;80.60;99607.03;4991852;28;20057;-87
2023/01/07 09:42:42;;;;;;;1.30;0.80;;;;;;;10.01;80.52;99610.22;4991318;28;20101;-87
2023/01/07 09:45:17;;;;;;;1.85;0.55;;;;;;;10.15;80.96;99605.94;4992666;28;20049;-88
2023/01/07 09:47:45;;;;;;;1.85;0.77;;;;;;;10.06;80.54;99604.81;4991061;28;20095;-87
2023/01/07 09:50:32;;;;;;;1.00;0.47;;;;;;;10.15;80.57;99600.47;4991967;28;20031;-87
2023/01/07 09:53:04;;;;;;;1.83;0.68;;;;;;;10.16;80.80;99604.88;4992045;28;20030;-87
2023/01/07 09:55:39;;;;;;;1.65;0.75;;;;;;;10.04;80.72;99604.25;4991730;28;20041;-87
2023/01/07 09:58:04;;;;;;;1.30;0.57;;;;;;;10.06;80.75;99604.81;4992296;28;20088;-88
2023/01/07 10:00:34;;;;;;;1.50;0.68;;;;;;;10.11;81.45;99599.38;4991383;28;20034;-87
2023/01/07 10:03:18;;;;;;;3.35;0.85;;;;;;;10.21;80.90;99593.16;4991316;28;20460;-87
2023/01/07 10:06:19;;;;;;;2.50;0.88;;;;;;;10.21;80.16;99597.81;4990592;28;23028;-88
2023/01/07 10:09:03;;;;;;;4.50;0.80;;;;;;;10.29;80.55;99589.13;4991335;28;20033;-87
2023/01/07 10:12:03;;;;;;;2.17;0.68;;;;;;;10.21;80.19;99589.63;4988871;28;20031;-88
2023/01/07 10:14:47;;;;;;;2.90;1.13;;;;;;;10.19;80.34;99572.72;4991843;28;20045;-88
2023/01/07 10:17:36;;;;;;;5.55;1.90;;;;;;;10.19;80.24;99580.91;4991504;28;20064;-87
2023/01/07 10:20:15;;;;;;;2.83;0.73;;;;;;;10.16;80.19;99576.78;4991128;28;20499;-88
2023/01/07 10:22:52;;;;;;;2.55;1.15;;;;;;;10.23;79.99;99571.09;4991789;28;20408;-87
2023/01/07 10:25:22;;;;;;;1.45;0.75;;;;;;;10.30;79.91;99568.09;4991726;28;20030;-87
2023/01/07 10:27:50;;;;;;;4.15;1.55;;;;;;;10.38;79.42;99560.25;4990388;28;20125;-88
2023/01/07 10:30:23;;;;;;;4.15;1.52;;;;;;;10.47;79.62;99562.44;4990485;28;20033;-88
2023/01/07 10:32:55;;;;;;;2.10;1.10;;;;;;;10.56;80.30;99552.66;4991346;28;20042;-87
2023/01/07 10:35:23;;;;;;;3.15;1.27;;;;;;;10.69;79.28;99559.53;4990948;28;20027;-89
2023/01/07 10:37:49;;;;;;;3.67;1.60;;;;;;;10.69;78.57;99553.25;4990220;28;20037;-88
2023/01/07 10:40:32;;;;;;;3.83;1.35;;;;;;;10.65;79.12;99550.25;4989712;28;20042;-87
2023/01/07 10:43:10;;;;;;;4.05;1.67;;;;;;;10.62;77.75;99548.03;4990799;28;20042;-87
2023/01/07 10:45:47;;;;;;;2.60;1.13;;;;;;;10.53;78.48;99542.31;4990776;28;20033;-87
2023/01/07 10:48:40;;;;;;;3.22;1.40;;;;;;;10.58;78.75;99525.97;4973456;28;20129;-88
2023/01/07 10:51:30;;;;;;;3.42;1.52;;;;;;;10.70;78.68;99528.44;4990025;28;20089;-88
2023/01/07 10:54:24;;;;;;;3.35;1.23;;;;;;;10.69;77.76;99523.25;4989651;28;20034;-90
2023/01/07 10:56:56;;;;;;;4.43;1.40;;;;;;;10.72;77.09;99506.34;4989621;28;20038;-87
2023/01/07 10:59:23;;;;;;;4.03;1.40;;;;;;;10.69;76.86;99496.00;4973108;28;20030;-87
2023/01/07 11:01:53;;;;;;;3.30;1.42;;;;;;;10.77;76.06;99486.44;4990650;28;20041;-88
2023/01/07 11:04:19;;;;;;;3.75;1.75;;;;;;;10.90;75.59;99479.63;4989541;28;20129;-88
2023/01/07 11:07:05;;;;;;;3.33;1.33;;;;;;;10.94;74.94;99480.72;4989851;28;20078;-88
2023/01/07 11:09:34;;;;;;;3.08;1.33;;;;;;;10.96;74.85;99468.41;4990798;28;20029;-87
2023/01/07 11:12:05;;;;;;;3.30;1.25;;;;;;;10.97;74.07;99469.25;4990017;28;20117;-88
2023/01/07 11:14:35;;;;;;;4.22;1.05;;;;;;;10.91;73.84;99465.72;4973033;28;20034;-87
2023/01/07 11:17:18;;;;;;;2.83;1.00;;;;;;;10.90;73.93;99463.28;4989719;28;20038;-87
2023/01/07 11:19:53;;;;;;;2.90;1.33;;;;;;;10.92;73.52;99450.19;4990636;28;20095;-88
2023/01/07 11:22:24;;;;;;;4.43;1.75;;;;;;;10.92;73.64;99442.78;4989779;28;20030;-88
2023/01/07 11:24:49;;;;;;;7.53;1.98;;;;;;;10.88;72.73;99440.91;4989590;28;20038;-87
2023/01/07 11:27:19;;;;;;;5.73;1.90;;;;;;;10.67;72.07;99432.72;4989261;28;20046;-87
2023/01/07 11:29:55;;;;;;;2.75;1.50;;;;;;;10.67;72.31;99427.28;4990603;28;20742;-88
2023/01/07 11:32:26;;;;;;;2.45;1.00;;;;;;;10.73;73.25;99420.75;4989664;28;20547;-87
2023/01/07 11:34:58;;;;;;;2.90;1.45;;;;;;;10.88;72.76;99424.53;4990228;28;20042;-88
2023/01/07 11:37:33;;;;;;;2.30;1.13;;;;;;;10.83;72.59;99426.19;4989673;28;20039;-88
2023/01/07 11:40:02;;;;;;;3.15;1.38;;;;;;;10.85;71.91;99412.25;4988934;28;20046;-88
2023/01/07 11:42:39;;;;;;;19.88;9.48;;;;;;;10.91;71.50;99404.88;4990104;28;20041;-87
2023/01/07 11:45:14;;;;;;;3.70;1.27;;;;;;;10.90;71.72;99397.81;4990312;28;20026;-88